sensor_id;sensor_type;location;lat;lon;timestamp;P1;durP1;ratioP1;P2;durP2;ratioP2
77022;SDS011;65952;51.440;-2.054;2023-11-19T00:00:06;18.00;;;4.45;;
77022;SDS011;65952;51.440;-2.054;2023-11-19T00:02:36;27.23;;;5.32;;
77022;SDS011;65952;51.440;-2.054;2023-11-19T00:05:05;14.95;;;4.63;;
77022;SDS011;65952;51.440;-2.054;2023-11-19T00:07:34;18.88;;;4.85;;
77022;SDS011;65952;51.440;-2.054;2023-11-19T00:10:01;22.98;;;5.25;;
77022;SDS011;65952;51.440;-2.054;2023-11-19T00:12:29;23.58;;;4.80;;
77022;SDS011;65952;51.440;-2.054;2023-11-19T00:14:54;21.25;;;4.72;;
77022;SDS011;65952;51.440;-2.054;2023-11-19T00:17:20;18.25;;;4.43;;
77022;SDS011;65952;51.440;-2.054;2023-11-19T00:19:45;23.73;;;4.72;;
77022;SDS011;65952;51.440;-2.054;2023-11-19T00:22:11;18.52;;;5.10;;
77022;SDS011;65952;51.440;-2.054;2023-11-19T00:24:37;18.60;;;5.45;;
77022;SDS011;65952;51.440;-2.054;2023-11-19T00:27:02;20.05;;;5.75;;
77022;SDS011;65952;51.440;-2.054;2023-11-19T00:29:27;18.35;;;4.88;;
77022;SDS011;65952;51.440;-2.054;2023-11-19T00:31:53;22.98;;;5.63;;
77022;SDS011;65952;51.440;-2.054;2023-11-19T00:34:18;25.85;;;5.53;;
77022;SDS011;65952;51.440;-2.054;2023-11-19T00:36:46;23.48;;;6.15;;
77022;SDS011;65952;51.440;-2.054;2023-11-19T00:39:11;18.63;;;4.35;;
77022;SDS011;65952;51.440;-2.054;2023-11-19T00:41:40;18.20;;;4.05;;
77022;SDS011;65952;51.440;-2.054;2023-11-19T00:44:05;17.98;;;5.28;;
77022;SDS011;65952;51.440;-2.054;2023-11-19T00:46:31;22.92;;;5.38;;
77022;SDS011;65952;51.440;-2.054;2023-11-19T00:48:57;19.73;;;3.85;;
77022;SDS011;65952;51.440;-2.054;2023-11-19T00:51:24;28.80;;;5.93;;
77022;SDS011;65952;51.440;-2.054;2023-11-19T00:53:51;25.80;;;5.20;;
77022;SDS011;65952;51.440;-2.054;2023-11-19T00:56:18;24.17;;;4.80;;
77022;SDS011;65952;51.440;-2.054;2023-11-19T00:58:44;23.83;;;6.72;;
77022;SDS011;65952;51.440;-2.054;2023-11-19T01:01:11;25.77;;;4.88;;
77022;SDS011;65952;51.440;-2.054;2023-11-19T01:03:37;25.80;;;5.47;;
77022;SDS011;65952;51.440;-2.054;2023-11-19T01:06:02;18.38;;;3.97;;
77022;SDS011;65952;51.440;-2.054;2023-11-19T01:08:28;18.92;;;4.30;;
77022;SDS011;65952;51.440;-2.054;2023-11-19T01:10:54;17.73;;;4.75;;
77022;SDS011;65952;51.440;-2.054;2023-11-19T01:13:19;18.17;;;4.53;;
77022;SDS011;65952;51.440;-2.054;2023-11-19T01:15:45;18.00;;;4.88;;
77022;SDS011;65952;51.440;-2.054;2023-11-19T01:18:10;19.95;;;4.63;;
77022;SDS011;65952;51.440;-2.054;2023-11-19T01:20:36;20.05;;;4.82;;
77022;SDS011;65952;51.440;-2.054;2023-11-19T01:23:02;17.10;;;4.57;;
77022;SDS011;65952;51.440;-2.054;2023-11-19T01:25:27;17.83;;;5.63;;
77022;SDS011;65952;51.440;-2.054;2023-11-19T01:27:53;24.85;;;5.13;;
77022;SDS011;65952;51.440;-2.054;2023-11-19T01:30:18;21.45;;;5.10;;
77022;SDS011;65952;51.440;-2.054;2023-11-19T01:32:44;15.18;;;4.80;;
77022;SDS011;65952;51.440;-2.054;2023-11-19T01:35:10;18.45;;;4.88;;
77022;SDS011;65952;51.440;-2.054;2023-11-19T01:37:35;20.10;;;4.95;;
77022;SDS011;65952;51.440;-2.054;2023-11-19T01:40:01;17.30;;;4.25;;
77022;SDS011;65952;51.440;-2.054;2023-11-19T01:42:29;18.08;;;4.28;;
77022;SDS011;65952;51.440;-2.054;2023-11-19T01:44:56;15.80;;;4.88;;
77022;SDS011;65952;51.440;-2.054;2023-11-19T01:47:23;17.33;;;4.20;;
77022;SDS011;65952;51.440;-2.054;2023-11-19T01:49:49;20.70;;;4.47;;
77022;SDS011;65952;51.440;-2.054;2023-11-19T01:52:15;18.10;;;4.43;;
77022;SDS011;65952;51.440;-2.054;2023-11-19T01:54:41;17.88;;;4.00;;
77022;SDS011;65952;51.440;-2.054;2023-11-19T01:57:07;16.50;;;4.50;;
77022;SDS011;65952;51.440;-2.054;2023-11-19T01:59:34;18.33;;;4.68;;
77022;SDS011;65952;51.440;-2.054;2023-11-19T02:01:59;17.90;;;4.57;;
77022;SDS011;65952;51.440;-2.054;2023-11-19T02:04:25;20.88;;;5.65;;
77022;SDS011;65952;51.440;-2.054;2023-11-19T02:06:51;15.38;;;3.78;;
77022;SDS011;65952;51.440;-2.054;2023-11-19T02:09:21;15.18;;;4.30;;
77022;SDS011;65952;51.440;-2.054;2023-11-19T02:11:46;18.92;;;4.82;;
77022;SDS011;65952;51.440;-2.054;2023-11-19T02:14:17;19.10;;;4.55;;
77022;SDS011;65952;51.440;-2.054;2023-11-19T02:16:42;17.92;;;4.15;;
77022;SDS011;65952;51.440;-2.054;2023-11-19T02:19:08;18.15;;;4.82;;
77022;SDS011;65952;51.440;-2.054;2023-11-19T02:21:35;16.50;;;4.47;;
77022;SDS011;65952;51.440;-2.054;2023-11-19T02:24:02;22.52;;;4.60;;
77022;SDS011;65952;51.440;-2.054;2023-11-19T02:27:07;12.95;;;3.92;;
77022;SDS011;65952;51.440;-2.054;2023-11-19T02:29:27;15.88;;;4.38;;
77022;SDS011;65952;51.440;-2.054;2023-11-19T02:31:53;13.82;;;3.83;;
77022;SDS011;65952;51.440;-2.054;2023-11-19T02:34:20;18.77;;;5.20;;
77022;SDS011;65952;51.440;-2.054;2023-11-19T02:36:46;21.73;;;5.13;;
77022;SDS011;65952;51.440;-2.054;2023-11-19T02:39:12;15.43;;;3.67;;
77022;SDS011;65952;51.440;-2.054;2023-11-19T02:41:38;16.30;;;4.35;;
77022;SDS011;65952;51.440;-2.054;2023-11-19T02:44:04;17.08;;;4.85;;
77022;SDS011;65952;51.440;-2.054;2023-11-19T02:46:31;16.40;;;4.22;;
77022;SDS011;65952;51.440;-2.054;2023-11-19T02:48:57;20.13;;;3.83;;
77022;SDS011;65952;51.440;-2.054;2023-11-19T02:51:22;22.95;;;4.60;;
77022;SDS011;65952;51.440;-2.054;2023-11-19T02:53:47;21.48;;;4.90;;
77022;SDS011;65952;51.440;-2.054;2023-11-19T02:56:13;16.45;;;3.75;;
77022;SDS011;65952;51.440;-2.054;2023-11-19T02:58:50;17.35;;;3.90;;
77022;SDS011;65952;51.440;-2.054;2023-11-19T03:01:21;16.35;;;4.72;;
77022;SDS011;65952;51.440;-2.054;2023-11-19T03:03:59;18.48;;;4.50;;
77022;SDS011;65952;51.440;-2.054;2023-11-19T03:06:26;14.48;;;3.83;;
77022;SDS011;65952;51.440;-2.054;2023-11-19T03:08:52;17.23;;;3.90;;
77022;SDS011;65952;51.440;-2.054;2023-11-19T03:11:17;20.50;;;4.25;;
77022;SDS011;65952;51.440;-2.054;2023-11-19T03:13:43;15.32;;;3.85;;
77022;SDS011;65952;51.440;-2.054;2023-11-19T03:16:08;14.60;;;4.15;;
77022;SDS011;65952;51.440;-2.054;2023-11-19T03:18:34;11.05;;;3.67;;
77022;SDS011;65952;51.440;-2.054;2023-11-19T03:21:00;17.75;;;4.88;;
77022;SDS011;65952;51.440;-2.054;2023-11-19T03:23:25;22.20;;;5.95;;
77022;SDS011;65952;51.440;-2.054;2023-11-19T03:25:53;18.70;;;4.53;;
77022;SDS011;65952;51.440;-2.054;2023-11-19T03:28:18;11.68;;;3.78;;
77022;SDS011;65952;51.440;-2.054;2023-11-19T03:30:44;18.35;;;4.28;;
77022;SDS011;65952;51.440;-2.054;2023-11-19T03:33:09;15.70;;;3.80;;
77022;SDS011;65952;51.440;-2.054;2023-11-19T03:35:35;19.65;;;4.47;;
77022;SDS011;65952;51.440;-2.054;2023-11-19T03:38:00;18.02;;;4.35;;
77022;SDS011;65952;51.440;-2.054;2023-11-19T03:40:26;16.30;;;4.82;;
77022;SDS011;65952;51.440;-2.054;2023-11-19T03:42:51;17.35;;;5.10;;
77022;SDS011;65952;51.440;-2.054;2023-11-19T03:45:17;13.27;;;3.92;;
77022;SDS011;65952;51.440;-2.054;2023-11-19T03:47:42;16.80;;;3.75;;
77022;SDS011;65952;51.440;-2.054;2023-11-19T03:50:08;18.55;;;4.68;;
77022;SDS011;65952;51.440;-2.054;2023-11-19T03:52:34;23.52;;;5.55;;
77022;SDS011;65952;51.440;-2.054;2023-11-19T03:54:59;13.23;;;3.47;;
77022;SDS011;65952;51.440;-2.054;2023-11-19T03:57:25;20.45;;;4.50;;
77022;SDS011;65952;51.440;-2.054;2023-11-19T03:59:52;18.63;;;3.78;;
77022;SDS011;65952;51.440;-2.054;2023-11-19T04:02:17;16.90;;;4.03;;
77022;SDS011;65952;51.440;-2.054;2023-11-19T04:04:42;13.32;;;3.92;;
77022;SDS011;65952;51.440;-2.054;2023-11-19T04:07:08;16.80;;;3.88;;
77022;SDS011;65952;51.440;-2.054;2023-11-19T04:09:33;19.45;;;4.97;;
77022;SDS011;65952;51.440;-2.054;2023-11-19T04:11:59;21.77;;;4.63;;
77022;SDS011;65952;51.440;-2.054;2023-11-19T04:14:25;20.60;;;4.90;;
77022;SDS011;65952;51.440;-2.054;2023-11-19T04:16:52;17.02;;;4.55;;
77022;SDS011;65952;51.440;-2.054;2023-11-19T04:19:20;10.82;;;3.90;;
77022;SDS011;65952;51.440;-2.054;2023-11-19T04:21:47;16.27;;;4.20;;
77022;SDS011;65952;51.440;-2.054;2023-11-19T04:24:12;13.45;;;4.95;;
77022;SDS011;65952;51.440;-2.054;2023-11-19T04:26:42;13.35;;;3.80;;
77022;SDS011;65952;51.440;-2.054;2023-11-19T04:29:11;15.63;;;4.82;;
77022;SDS011;65952;51.440;-2.054;2023-11-19T04:31:37;13.95;;;3.67;;
77022;SDS011;65952;51.440;-2.054;2023-11-19T04:34:02;12.65;;;3.13;;
77022;SDS011;65952;51.440;-2.054;2023-11-19T04:36:27;17.73;;;3.72;;
77022;SDS011;65952;51.440;-2.054;2023-11-19T04:38:54;19.13;;;3.50;;
77022;SDS011;65952;51.440;-2.054;2023-11-19T04:41:20;9.20;;;3.58;;
77022;SDS011;65952;51.440;-2.054;2023-11-19T04:43:45;15.93;;;3.45;;
77022;SDS011;65952;51.440;-2.054;2023-11-19T04:46:10;15.48;;;3.63;;
77022;SDS011;65952;51.440;-2.054;2023-11-19T04:48:36;12.40;;;3.55;;
77022;SDS011;65952;51.440;-2.054;2023-11-19T04:51:04;15.70;;;3.55;;
77022;SDS011;65952;51.440;-2.054;2023-11-19T04:53:29;13.07;;;3.30;;
77022;SDS011;65952;51.440;-2.054;2023-11-19T04:55:55;15.75;;;3.47;;
77022;SDS011;65952;51.440;-2.054;2023-11-19T04:58:20;15.88;;;3.90;;
77022;SDS011;65952;51.440;-2.054;2023-11-19T05:00:46;15.57;;;3.75;;
77022;SDS011;65952;51.440;-2.054;2023-11-19T05:03:11;16.48;;;4.07;;
77022;SDS011;65952;51.440;-2.054;2023-11-19T05:05:36;16.02;;;3.60;;
77022;SDS011;65952;51.440;-2.054;2023-11-19T05:08:02;15.20;;;4.28;;
77022;SDS011;65952;51.440;-2.054;2023-11-19T05:10:27;12.93;;;3.50;;
77022;SDS011;65952;51.440;-2.054;2023-11-19T05:12:53;16.17;;;3.65;;
77022;SDS011;65952;51.440;-2.054;2023-11-19T05:15:18;19.33;;;3.80;;
77022;SDS011;65952;51.440;-2.054;2023-11-19T05:17:43;15.18;;;4.15;;
77022;SDS011;65952;51.440;-2.054;2023-11-19T05:20:10;13.65;;;4.25;;
77022;SDS011;65952;51.440;-2.054;2023-11-19T05:22:41;12.23;;;3.40;;
77022;SDS011;65952;51.440;-2.054;2023-11-19T05:25:07;23.70;;;4.47;;
77022;SDS011;65952;51.440;-2.054;2023-11-19T05:27:34;15.20;;;3.65;;
77022;SDS011;65952;51.440;-2.054;2023-11-19T05:30:00;15.00;;;4.10;;
77022;SDS011;65952;51.440;-2.054;2023-11-19T05:32:26;19.05;;;4.65;;
77022;SDS011;65952;51.440;-2.054;2023-11-19T05:34:52;18.58;;;3.88;;
77022;SDS011;65952;51.440;-2.054;2023-11-19T05:37:17;18.23;;;4.15;;
77022;SDS011;65952;51.440;-2.054;2023-11-19T05:39:44;16.00;;;4.68;;
77022;SDS011;65952;51.440;-2.054;2023-11-19T05:42:10;20.85;;;4.30;;
77022;SDS011;65952;51.440;-2.054;2023-11-19T05:44:36;16.10;;;4.03;;
77022;SDS011;65952;51.440;-2.054;2023-11-19T05:47:01;16.92;;;3.85;;
77022;SDS011;65952;51.440;-2.054;2023-11-19T05:49:27;20.67;;;5.25;;
77022;SDS011;65952;51.440;-2.054;2023-11-19T05:51:52;20.73;;;4.50;;
77022;SDS011;65952;51.440;-2.054;2023-11-19T05:54:20;17.73;;;3.95;;
77022;SDS011;65952;51.440;-2.054;2023-11-19T05:56:49;16.73;;;3.97;;
77022;SDS011;65952;51.440;-2.054;2023-11-19T05:59:15;15.05;;;3.90;;
77022;SDS011;65952;51.440;-2.054;2023-11-19T06:01:43;17.48;;;3.65;;
77022;SDS011;65952;51.440;-2.054;2023-11-19T06:04:09;19.27;;;3.67;;
77022;SDS011;65952;51.440;-2.054;2023-11-19T06:06:35;14.35;;;3.30;;
77022;SDS011;65952;51.440;-2.054;2023-11-19T06:09:01;17.00;;;3.88;;
77022;SDS011;65952;51.440;-2.054;2023-11-19T06:11:27;10.10;;;3.10;;
77022;SDS011;65952;51.440;-2.054;2023-11-19T06:13:53;15.73;;;4.43;;
77022;SDS011;65952;51.440;-2.054;2023-11-19T06:16:18;20.38;;;3.97;;
77022;SDS011;65952;51.440;-2.054;2023-11-19T06:18:44;17.58;;;3.92;;
77022;SDS011;65952;51.440;-2.054;2023-11-19T06:21:09;14.07;;;3.53;;
77022;SDS011;65952;51.440;-2.054;2023-11-19T06:23:35;13.82;;;3.58;;
77022;SDS011;65952;51.440;-2.054;2023-11-19T06:26:01;17.63;;;3.42;;
77022;SDS011;65952;51.440;-2.054;2023-11-19T06:28:26;22.50;;;3.70;;
77022;SDS011;65952;51.440;-2.054;2023-11-19T06:30:51;15.82;;;3.95;;
77022;SDS011;65952;51.440;-2.054;2023-11-19T06:33:17;13.13;;;4.47;;
77022;SDS011;65952;51.440;-2.054;2023-11-19T06:35:42;24.45;;;5.90;;
77022;SDS011;65952;51.440;-2.054;2023-11-19T06:38:08;20.13;;;3.65;;
77022;SDS011;65952;51.440;-2.054;2023-11-19T06:40:33;16.65;;;4.05;;
77022;SDS011;65952;51.440;-2.054;2023-11-19T06:43:00;12.45;;;3.67;;
77022;SDS011;65952;51.440;-2.054;2023-11-19T06:45:27;17.35;;;3.60;;
77022;SDS011;65952;51.440;-2.054;2023-11-19T06:47:53;14.50;;;3.63;;
77022;SDS011;65952;51.440;-2.054;2023-11-19T06:50:18;11.52;;;3.17;;
77022;SDS011;65952;51.440;-2.054;2023-11-19T06:52:44;8.48;;;3.45;;
77022;SDS011;65952;51.440;-2.054;2023-11-19T06:55:10;13.35;;;3.58;;
77022;SDS011;65952;51.440;-2.054;2023-11-19T06:57:35;13.80;;;3.05;;
77022;SDS011;65952;51.440;-2.054;2023-11-19T07:00:01;12.93;;;3.47;;
77022;SDS011;65952;51.440;-2.054;2023-11-19T07:02:26;13.25;;;3.53;;
77022;SDS011;65952;51.440;-2.054;2023-11-19T07:04:51;11.85;;;3.20;;
77022;SDS011;65952;51.440;-2.054;2023-11-19T07:07:17;16.08;;;3.97;;
77022;SDS011;65952;51.440;-2.054;2023-11-19T07:09:42;13.77;;;3.22;;
77022;SDS011;65952;51.440;-2.054;2023-11-19T07:12:08;19.40;;;3.55;;
77022;SDS011;65952;51.440;-2.054;2023-11-19T07:14:34;10.13;;;3.10;;
77022;SDS011;65952;51.440;-2.054;2023-11-19T07:16:59;13.32;;;3.70;;
77022;SDS011;65952;51.440;-2.054;2023-11-19T07:19:25;11.48;;;3.17;;
77022;SDS011;65952;51.440;-2.054;2023-11-19T07:21:50;8.18;;;2.97;;
77022;SDS011;65952;51.440;-2.054;2023-11-19T07:24:16;19.75;;;3.63;;
77022;SDS011;65952;51.440;-2.054;2023-11-19T07:26:45;15.70;;;3.30;;
77022;SDS011;65952;51.440;-2.054;2023-11-19T07:29:12;11.93;;;3.20;;
77022;SDS011;65952;51.440;-2.054;2023-11-19T07:31:44;17.47;;;3.83;;
77022;SDS011;65952;51.440;-2.054;2023-11-19T07:34:09;14.55;;;4.00;;
77022;SDS011;65952;51.440;-2.054;2023-11-19T07:36:36;17.08;;;3.58;;
77022;SDS011;65952;51.440;-2.054;2023-11-19T07:39:03;16.75;;;3.53;;
77022;SDS011;65952;51.440;-2.054;2023-11-19T07:41:31;13.88;;;3.92;;
77022;SDS011;65952;51.440;-2.054;2023-11-19T07:43:57;13.55;;;3.70;;
77022;SDS011;65952;51.440;-2.054;2023-11-19T07:46:22;16.52;;;3.33;;
77022;SDS011;65952;51.440;-2.054;2023-11-19T07:48:48;16.60;;;3.97;;
77022;SDS011;65952;51.440;-2.054;2023-11-19T07:51:13;18.65;;;4.63;;
77022;SDS011;65952;51.440;-2.054;2023-11-19T07:53:39;17.75;;;3.95;;
77022;SDS011;65952;51.440;-2.054;2023-11-19T07:56:06;14.68;;;3.50;;
77022;SDS011;65952;51.440;-2.054;2023-11-19T07:58:32;10.10;;;3.20;;
77022;SDS011;65952;51.440;-2.054;2023-11-19T08:00:57;13.05;;;3.25;;
77022;SDS011;65952;51.440;-2.054;2023-11-19T08:03:23;16.75;;;4.78;;
77022;SDS011;65952;51.440;-2.054;2023-11-19T08:05:48;19.58;;;4.55;;
77022;SDS011;65952;51.440;-2.054;2023-11-19T08:08:14;18.77;;;4.65;;
77022;SDS011;65952;51.440;-2.054;2023-11-19T08:10:40;13.73;;;3.88;;
77022;SDS011;65952;51.440;-2.054;2023-11-19T08:13:05;10.52;;;3.42;;
77022;SDS011;65952;51.440;-2.054;2023-11-19T08:15:31;16.50;;;3.58;;
77022;SDS011;65952;51.440;-2.054;2023-11-19T08:17:56;12.57;;;3.40;;
77022;SDS011;65952;51.440;-2.054;2023-11-19T08:20:22;11.98;;;3.28;;
77022;SDS011;65952;51.440;-2.054;2023-11-19T08:22:47;17.13;;;4.25;;
77022;SDS011;65952;51.440;-2.054;2023-11-19T08:25:13;12.55;;;2.97;;
77022;SDS011;65952;51.440;-2.054;2023-11-19T08:27:39;14.55;;;3.80;;
77022;SDS011;65952;51.440;-2.054;2023-11-19T08:30:04;17.75;;;4.47;;
77022;SDS011;65952;51.440;-2.054;2023-11-19T08:32:33;10.88;;;3.25;;
77022;SDS011;65952;51.440;-2.054;2023-11-19T08:34:59;13.98;;;3.10;;
77022;SDS011;65952;51.440;-2.054;2023-11-19T08:37:25;11.90;;;3.42;;
77022;SDS011;65952;51.440;-2.054;2023-11-19T08:39:50;14.65;;;4.55;;
77022;SDS011;65952;51.440;-2.054;2023-11-19T08:42:16;11.77;;;3.47;;
77022;SDS011;65952;51.440;-2.054;2023-11-19T08:44:42;19.58;;;4.30;;
77022;SDS011;65952;51.440;-2.054;2023-11-19T08:47:09;10.68;;;3.95;;
77022;SDS011;65952;51.440;-2.054;2023-11-19T08:49:35;13.82;;;4.13;;
77022;SDS011;65952;51.440;-2.054;2023-11-19T08:52:00;10.45;;;3.45;;
77022;SDS011;65952;51.440;-2.054;2023-11-19T08:54:26;12.57;;;3.50;;
77022;SDS011;65952;51.440;-2.054;2023-11-19T08:56:51;18.40;;;3.83;;
77022;SDS011;65952;51.440;-2.054;2023-11-19T08:59:16;15.20;;;3.90;;
77022;SDS011;65952;51.440;-2.054;2023-11-19T09:01:42;16.83;;;4.40;;
77022;SDS011;65952;51.440;-2.054;2023-11-19T09:04:08;17.80;;;4.10;;
77022;SDS011;65952;51.440;-2.054;2023-11-19T09:06:34;16.48;;;4.10;;
77022;SDS011;65952;51.440;-2.054;2023-11-19T09:09:00;13.55;;;4.38;;
77022;SDS011;65952;51.440;-2.054;2023-11-19T09:11:28;15.77;;;3.30;;
77022;SDS011;65952;51.440;-2.054;2023-11-19T09:13:54;13.77;;;3.65;;
77022;SDS011;65952;51.440;-2.054;2023-11-19T09:16:19;12.68;;;3.15;;
77022;SDS011;65952;51.440;-2.054;2023-11-19T09:18:44;16.98;;;3.80;;
77022;SDS011;65952;51.440;-2.054;2023-11-19T09:21:10;16.27;;;3.33;;
77022;SDS011;65952;51.440;-2.054;2023-11-19T09:23:36;19.17;;;3.50;;
77022;SDS011;65952;51.440;-2.054;2023-11-19T09:26:04;14.65;;;3.83;;
77022;SDS011;65952;51.440;-2.054;2023-11-19T09:28:30;18.63;;;4.82;;
77022;SDS011;65952;51.440;-2.054;2023-11-19T09:30:55;12.63;;;3.40;;
77022;SDS011;65952;51.440;-2.054;2023-11-19T09:33:21;15.32;;;3.47;;
77022;SDS011;65952;51.440;-2.054;2023-11-19T09:35:46;17.15;;;4.13;;
77022;SDS011;65952;51.440;-2.054;2023-11-19T09:38:12;13.68;;;3.83;;
77022;SDS011;65952;51.440;-2.054;2023-11-19T09:40:37;16.88;;;4.63;;
77022;SDS011;65952;51.440;-2.054;2023-11-19T09:43:03;17.20;;;3.65;;
77022;SDS011;65952;51.440;-2.054;2023-11-19T09:45:29;13.98;;;3.55;;
77022;SDS011;65952;51.440;-2.054;2023-11-19T09:47:57;15.32;;;3.40;;
77022;SDS011;65952;51.440;-2.054;2023-11-19T09:50:25;10.70;;;3.60;;
77022;SDS011;65952;51.440;-2.054;2023-11-19T09:52:51;11.43;;;3.28;;
77022;SDS011;65952;51.440;-2.054;2023-11-19T09:55:16;11.57;;;3.35;;
77022;SDS011;65952;51.440;-2.054;2023-11-19T09:57:42;14.23;;;4.15;;
77022;SDS011;65952;51.440;-2.054;2023-11-19T10:00:09;12.05;;;2.90;;
77022;SDS011;65952;51.440;-2.054;2023-11-19T10:02:36;10.00;;;2.90;;
77022;SDS011;65952;51.440;-2.054;2023-11-19T10:05:04;8.57;;;2.40;;
77022;SDS011;65952;51.440;-2.054;2023-11-19T10:07:31;12.70;;;3.10;;
77022;SDS011;65952;51.440;-2.054;2023-11-19T10:09:58;7.30;;;2.22;;
77022;SDS011;65952;51.440;-2.054;2023-11-19T10:12:33;8.00;;;2.60;;
77022;SDS011;65952;51.440;-2.054;2023-11-19T10:14:59;11.15;;;3.05;;
77022;SDS011;65952;51.440;-2.054;2023-11-19T10:17:34;6.13;;;2.63;;
77022;SDS011;65952;51.440;-2.054;2023-11-19T10:19:59;13.45;;;2.50;;
77022;SDS011;65952;51.440;-2.054;2023-11-19T10:22:27;14.00;;;2.92;;
77022;SDS011;65952;51.440;-2.054;2023-11-19T10:24:53;10.00;;;2.90;;
77022;SDS011;65952;51.440;-2.054;2023-11-19T10:27:18;9.35;;;2.58;;
77022;SDS011;65952;51.440;-2.054;2023-11-19T10:29:47;12.48;;;3.05;;
77022;SDS011;65952;51.440;-2.054;2023-11-19T10:32:13;12.18;;;2.80;;
77022;SDS011;65952;51.440;-2.054;2023-11-19T10:34:40;14.43;;;3.10;;
77022;SDS011;65952;51.440;-2.054;2023-11-19T10:37:06;16.70;;;3.60;;
77022;SDS011;65952;51.440;-2.054;2023-11-19T10:42:19;8.30;;;2.92;;
77022;SDS011;65952;51.440;-2.054;2023-11-19T10:44:44;7.70;;;2.60;;
77022;SDS011;65952;51.440;-2.054;2023-11-19T10:47:10;9.52;;;2.78;;
77022;SDS011;65952;51.440;-2.054;2023-11-19T10:49:37;10.02;;;2.78;;
77022;SDS011;65952;51.440;-2.054;2023-11-19T10:52:05;9.75;;;2.65;;
77022;SDS011;65952;51.440;-2.054;2023-11-19T10:54:34;10.02;;;2.50;;
77022;SDS011;65952;51.440;-2.054;2023-11-19T10:56:59;9.25;;;3.00;;
77022;SDS011;65952;51.440;-2.054;2023-11-19T10:59:30;7.55;;;2.83;;
77022;SDS011;65952;51.440;-2.054;2023-11-19T11:02:00;11.98;;;2.90;;
77022;SDS011;65952;51.440;-2.054;2023-11-19T11:04:31;8.77;;;2.53;;
77022;SDS011;65952;51.440;-2.054;2023-11-19T11:07:02;6.75;;;2.58;;
77022;SDS011;65952;51.440;-2.054;2023-11-19T11:09:29;7.72;;;2.38;;
77022;SDS011;65952;51.440;-2.054;2023-11-19T11:11:55;8.38;;;3.03;;
77022;SDS011;65952;51.440;-2.054;2023-11-19T11:14:22;10.18;;;2.60;;
77022;SDS011;65952;51.440;-2.054;2023-11-19T11:16:49;6.35;;;2.40;;
77022;SDS011;65952;51.440;-2.054;2023-11-19T11:19:15;9.05;;;2.78;;
77022;SDS011;65952;51.440;-2.054;2023-11-19T11:21:42;10.23;;;2.42;;
77022;SDS011;65952;51.440;-2.054;2023-11-19T11:27:35;10.20;;;2.50;;
77022;SDS011;65952;51.440;-2.054;2023-11-19T11:30:10;6.65;;;2.30;;
77022;SDS011;65952;51.440;-2.054;2023-11-19T11:38:21;8.45;;;2.92;;
77022;SDS011;65952;51.440;-2.054;2023-11-19T11:46:20;7.95;;;2.47;;
77022;SDS011;65952;51.440;-2.054;2023-11-19T11:49:04;11.05;;;2.72;;
77022;SDS011;65952;51.440;-2.054;2023-11-19T11:54:31;5.75;;;3.00;;
77022;SDS011;65952;51.440;-2.054;2023-11-19T12:02:07;6.03;;;2.38;;
77022;SDS011;65952;51.440;-2.054;2023-11-19T12:04:34;11.80;;;2.65;;
77022;SDS011;65952;51.440;-2.054;2023-11-19T12:07:13;9.43;;;2.65;;
77022;SDS011;65952;51.440;-2.054;2023-11-19T12:09:41;9.15;;;2.10;;
77022;SDS011;65952;51.440;-2.054;2023-11-19T12:12:20;7.05;;;2.28;;
77022;SDS011;65952;51.440;-2.054;2023-11-19T12:20:04;8.40;;;2.33;;
77022;SDS011;65952;51.440;-2.054;2023-11-19T12:22:40;5.53;;;2.33;;
77022;SDS011;65952;51.440;-2.054;2023-11-19T12:27:35;5.05;;;2.08;;
77022;SDS011;65952;51.440;-2.054;2023-11-19T12:30:03;3.63;;;1.67;;
77022;SDS011;65952;51.440;-2.054;2023-11-19T12:32:38;5.18;;;2.03;;
77022;SDS011;65952;51.440;-2.054;2023-11-19T12:35:05;5.30;;;1.80;;
77022;SDS011;65952;51.440;-2.054;2023-11-19T12:37:30;6.10;;;1.90;;
77022;SDS011;65952;51.440;-2.054;2023-11-19T12:39:56;6.18;;;2.05;;
77022;SDS011;65952;51.440;-2.054;2023-11-19T12:42:44;8.23;;;1.98;;
77022;SDS011;65952;51.440;-2.054;2023-11-19T12:45:12;3.85;;;1.60;;
77022;SDS011;65952;51.440;-2.054;2023-11-19T12:47:41;3.65;;;1.80;;
77022;SDS011;65952;51.440;-2.054;2023-11-19T12:50:14;6.18;;;2.78;;
77022;SDS011;65952;51.440;-2.054;2023-11-19T12:52:42;9.05;;;2.67;;
77022;SDS011;65952;51.440;-2.054;2023-11-19T12:55:23;2.80;;;1.70;;
77022;SDS011;65952;51.440;-2.054;2023-11-19T12:57:51;3.35;;;1.70;;
77022;SDS011;65952;51.440;-2.054;2023-11-19T13:00:18;4.80;;;1.70;;
77022;SDS011;65952;51.440;-2.054;2023-11-19T13:02:51;5.15;;;1.77;;
77022;SDS011;65952;51.440;-2.054;2023-11-19T13:08:07;4.95;;;1.83;;
77022;SDS011;65952;51.440;-2.054;2023-11-19T13:10:53;5.30;;;1.63;;
77022;SDS011;65952;51.440;-2.054;2023-11-19T13:13:19;3.35;;;1.60;;
77022;SDS011;65952;51.440;-2.054;2023-11-19T13:15:44;4.70;;;1.85;;
77022;SDS011;65952;51.440;-2.054;2023-11-19T13:18:10;3.80;;;1.70;;
77022;SDS011;65952;51.440;-2.054;2023-11-19T13:20:36;3.63;;;1.80;;
77022;SDS011;65952;51.440;-2.054;2023-11-19T13:23:03;4.22;;;1.55;;
77022;SDS011;65952;51.440;-2.054;2023-11-19T13:25:29;3.70;;;1.60;;
77022;SDS011;65952;51.440;-2.054;2023-11-19T13:27:55;3.90;;;1.52;;
77022;SDS011;65952;51.440;-2.054;2023-11-19T13:30:22;4.82;;;1.73;;
77022;SDS011;65952;51.440;-2.054;2023-11-19T13:32:48;5.82;;;1.83;;
77022;SDS011;65952;51.440;-2.054;2023-11-19T13:35:14;5.70;;;1.98;;
77022;SDS011;65952;51.440;-2.054;2023-11-19T13:37:40;4.60;;;1.80;;
77022;SDS011;65952;51.440;-2.054;2023-11-19T13:40:09;6.72;;;2.17;;
77022;SDS011;65952;51.440;-2.054;2023-11-19T13:42:38;6.50;;;2.33;;
77022;SDS011;65952;51.440;-2.054;2023-11-19T13:45:10;8.25;;;2.10;;
77022;SDS011;65952;51.440;-2.054;2023-11-19T13:47:37;6.50;;;2.00;;
77022;SDS011;65952;51.440;-2.054;2023-11-19T13:50:10;6.93;;;2.30;;
77022;SDS011;65952;51.440;-2.054;2023-11-19T13:52:37;6.90;;;2.42;;
77022;SDS011;65952;51.440;-2.054;2023-11-19T13:55:06;4.95;;;1.88;;
77022;SDS011;65952;51.440;-2.054;2023-11-19T13:57:33;7.97;;;2.08;;
77022;SDS011;65952;51.440;-2.054;2023-11-19T13:59:59;8.90;;;2.67;;
77022;SDS011;65952;51.440;-2.054;2023-11-19T14:02:26;7.30;;;2.20;;
77022;SDS011;65952;51.440;-2.054;2023-11-19T14:04:52;5.68;;;1.90;;
77022;SDS011;65952;51.440;-2.054;2023-11-19T14:07:17;6.50;;;2.78;;
77022;SDS011;65952;51.440;-2.054;2023-11-19T14:09:43;6.90;;;2.45;;
77022;SDS011;65952;51.440;-2.054;2023-11-19T14:12:08;10.48;;;3.05;;
77022;SDS011;65952;51.440;-2.054;2023-11-19T14:14:34;7.75;;;2.15;;
77022;SDS011;65952;51.440;-2.054;2023-11-19T14:17:01;7.20;;;2.63;;
77022;SDS011;65952;51.440;-2.054;2023-11-19T14:19:28;8.32;;;2.75;;
77022;SDS011;65952;51.440;-2.054;2023-11-19T14:21:53;6.90;;;2.28;;
77022;SDS011;65952;51.440;-2.054;2023-11-19T14:24:19;6.93;;;2.80;;
77022;SDS011;65952;51.440;-2.054;2023-11-19T14:26:45;9.40;;;2.30;;
77022;SDS011;65952;51.440;-2.054;2023-11-19T14:29:12;7.80;;;2.50;;
77022;SDS011;65952;51.440;-2.054;2023-11-19T14:31:37;7.65;;;2.78;;
77022;SDS011;65952;51.440;-2.054;2023-11-19T14:34:03;6.38;;;2.35;;
77022;SDS011;65952;51.440;-2.054;2023-11-19T14:36:28;6.00;;;2.47;;
77022;SDS011;65952;51.440;-2.054;2023-11-19T14:38:54;8.60;;;2.40;;
77022;SDS011;65952;51.440;-2.054;2023-11-19T14:41:19;8.02;;;2.70;;
77022;SDS011;65952;51.440;-2.054;2023-11-19T14:43:44;6.57;;;2.15;;
77022;SDS011;65952;51.440;-2.054;2023-11-19T14:46:10;9.20;;;2.63;;
77022;SDS011;65952;51.440;-2.054;2023-11-19T14:48:35;10.40;;;3.38;;
77022;SDS011;65952;51.440;-2.054;2023-11-19T14:51:00;10.60;;;2.35;;
77022;SDS011;65952;51.440;-2.054;2023-11-19T14:53:28;5.47;;;2.22;;
77022;SDS011;65952;51.440;-2.054;2023-11-19T14:55:53;7.25;;;2.70;;
77022;SDS011;65952;51.440;-2.054;2023-11-19T14:58:19;12.63;;;2.95;;